createdAt,value
2023-01-22T00:00:14.151Z,101986.50
2023-01-22T00:04:24.113Z,101985.59
2023-01-22T00:08:53.933Z,101992.54
2023-01-22T00:13:07.785Z,101985.01
2023-01-22T00:17:17.692Z,101978.88
2023-01-22T00:21:28.759Z,101979.98
2023-01-22T00:25:38.109Z,101971.67
2023-01-22T00:29:48.440Z,101967.52
2023-01-22T00:35:24.039Z,101977.48
2023-01-22T00:39:53.219Z,101980.17
2023-01-22T00:44:22.459Z,101978.23
2023-01-22T00:48:51.688Z,101979.33
2023-01-22T00:53:20.630Z,101987.27
2023-01-22T00:57:49.558Z,101998.29
2023-01-22T01:02:19.374Z,101997.49
2023-01-22T01:06:48.558Z,101996.29
2023-01-22T01:11:17.478Z,101992.27
2023-01-22T01:15:46.356Z,102000.94
2023-01-22T01:20:15.514Z,101996.44
2023-01-22T01:24:45.124Z,101999.41
2023-01-22T01:29:13.941Z,102009.98
2023-01-22T01:33:43.180Z,102006.04
2023-01-22T01:38:12.061Z,102005.93
2023-01-22T01:42:42.347Z,102006.54
2023-01-22T01:47:21.120Z,102010.02
2023-01-22T01:51:49.906Z,102014.40
2023-01-22T01:56:19.017Z,102015.09
2023-01-22T02:00:48.538Z,102017.64
2023-01-22T02:05:17.670Z,102022.72
2023-01-22T02:09:46.623Z,102025.83
2023-01-22T02:14:15.864Z,102032.14
2023-01-22T02:18:45.732Z,102034.48
2023-01-22T02:23:14.814Z,102040.14
2023-01-22T02:27:43.849Z,102039.98
2023-01-22T02:32:12.643Z,102037.16
2023-01-22T02:36:41.707Z,102038.56
2023-01-22T02:41:10.823Z,102044.34
2023-01-22T02:45:39.872Z,102041.39
2023-01-22T02:50:09.003Z,102045.09
2023-01-22T02:54:38.105Z,102051.60
2023-01-22T02:59:07.641Z,102047.01
2023-01-22T03:03:36.674Z,102051.80
2023-01-22T03:08:05.819Z,102048.79
2023-01-22T03:12:34.846Z,102052.16
2023-01-22T03:17:02.279Z,102058.42
2023-01-22T03:21:34.762Z,102061.92
2023-01-22T03:26:04.830Z,102070.56
2023-01-22T03:30:33.908Z,102070.36
2023-01-22T03:35:03.120Z,102070.45
2023-01-22T03:39:47.467Z,102074.05
2023-01-22T03:44:16.298Z,102075.94
2023-01-22T03:48:45.433Z,102077.25
2023-01-22T03:53:14.486Z,102077.48
2023-01-22T03:57:43.854Z,102088.70
2023-01-22T04:02:13.260Z,102094.24
2023-01-22T04:06:42.441Z,102096.88
2023-01-22T04:11:11.957Z,102100.89
2023-01-22T04:15:41.084Z,102108.55
2023-01-22T04:20:13.199Z,102110.80
2023-01-22T04:24:42.524Z,102109.39
2023-01-22T04:29:11.619Z,102113.75
2023-01-22T04:33:40.735Z,102117.45
2023-01-22T04:38:09.864Z,102124.57
2023-01-22T04:42:39.185Z,102128.10
2023-01-22T04:47:08.254Z,102126.77
2023-01-22T04:51:41.726Z,102132.73
2023-01-22T04:56:10.646Z,102143.14
2023-01-22T05:00:39.804Z,102144.34
2023-01-22T05:05:08.878Z,102147.20
2023-01-22T05:09:38.754Z,102149.15
2023-01-22T05:14:10.491Z,102153.96
2023-01-22T05:18:37.830Z,102158.14
2023-01-22T05:23:06.866Z,102163.56
2023-01-22T05:27:36.237Z,102170.56
2023-01-22T05:32:14.686Z,102171.73
2023-01-22T05:36:43.963Z,102172.43
2023-01-22T05:45:31.841Z,102170.70
2023-01-22T05:49:30.376Z,102171.35
2023-01-22T05:53:13.645Z,102169.04
2023-01-22T05:56:58.903Z,102168.10
2023-01-22T06:04:44.325Z,102169.80
2023-01-22T06:08:55.519Z,102169.88
2023-01-22T06:12:16.968Z,102171.08
2023-01-22T06:15:48.345Z,102177.30
2023-01-22T06:20:05.989Z,102184.98
2023-01-22T06:24:07.729Z,102192.09
2023-01-22T06:27:56.906Z,102203.74
2023-01-22T06:31:46.124Z,102207.81
2023-01-22T06:35:37.180Z,102209.98
2023-01-22T06:39:22.565Z,102220.19
2023-01-22T06:47:21.601Z,102231.91
2023-01-22T06:50:52.562Z,102238.00
2023-01-22T06:54:20.827Z,102241.79
2023-01-22T06:57:57.470Z,102240.05
2023-01-22T07:02:01.929Z,102245.75
2023-01-22T07:05:44.604Z,102243.06
2023-01-22T07:10:03.771Z,102252.42
2023-01-22T07:14:10.672Z,102250.23
2023-01-22T07:17:56.640Z,102255.53
2023-01-22T07:22:32.441Z,102256.91
2023-01-22T07:27:01.915Z,102264.51
2023-01-22T07:31:12.309Z,102271.40
2023-01-22T07:35:41.693Z,102276.20
2023-01-22T07:40:14.040Z,102279.86
2023-01-22T07:52:47.609Z,102287.64
2023-01-22T07:56:22.852Z,102295.20
2023-01-22T08:00:25.225Z,102298.73
2023-01-22T08:04:25.827Z,102304.48
2023-01-22T08:08:46.320Z,102301.44
2023-01-22T08:12:40.864Z,102305.54
2023-01-22T08:20:29.053Z,102317.16
2023-01-22T08:24:05.102Z,102322.79
2023-01-22T08:28:01.732Z,102321.51
2023-01-22T08:35:58.511Z,102327.88
2023-01-22T08:39:31.914Z,102328.79
2023-01-22T08:42:55.877Z,102335.50
2023-01-22T08:46:58.502Z,102338.40
2023-01-22T08:50:49.081Z,102334.05
2023-01-22T08:54:34.358Z,102329.44
2023-01-22T08:58:33.315Z,102332.54
2023-01-22T09:02:21.259Z,102344.02
2023-01-22T09:05:58.020Z,102343.83
2023-01-22T09:09:52.511Z,102346.48
2023-01-22T09:13:48.830Z,102345.70
2023-01-22T09:17:12.346Z,102349.91
2023-01-22T09:21:27.018Z,102354.88
2023-01-22T09:33:26.297Z,102355.55
2023-01-22T09:37:03.641Z,102358.05
2023-01-22T09:41:25.169Z,102358.64
2023-01-22T09:45:15.827Z,102360.71
2023-01-22T09:49:08.084Z,102358.58
2023-01-22T09:52:23.787Z,102361.55
2023-01-22T09:55:18.776Z,102355.14
2023-01-22T09:59:02.599Z,102363.89
2023-01-22T10:02:17.078Z,102374.45
2023-01-22T10:06:10.839Z,102369.15
2023-01-22T10:09:59.536Z,102370.47
2023-01-22T10:13:16.780Z,102375.14
2023-01-22T10:16:53.544Z,102373.34
2023-01-22T10:20:14.871Z,102377.27
2023-01-22T10:23:05.007Z,102376.90
2023-01-22T10:25:45.681Z,102386.73
2023-01-22T10:29:02.720Z,102382.53
2023-01-22T10:32:59.350Z,102390.82
2023-01-22T10:36:55.835Z,102387.45
2023-01-22T10:40:52.855Z,102393.41
2023-01-22T10:44:54.638Z,102385.30
2023-01-22T10:48:34.545Z,102387.81
2023-01-22T10:56:03.229Z,102381.57
2023-01-22T11:04:01.617Z,102388.44
2023-01-22T11:07:43.371Z,102388.98
2023-01-22T11:11:50.682Z,102388.33
2023-01-22T11:15:03.167Z,102382.91
2023-01-22T11:19:32.626Z,102382.73
2023-01-22T11:27:14.540Z,102372.70
2023-01-22T11:30:56.893Z,102374.63
2023-01-22T11:35:08.888Z,102371.61
2023-01-22T11:38:46.510Z,102367.92
2023-01-22T11:42:26.822Z,102369.96
2023-01-22T11:46:32.935Z,102371.23
2023-01-22T11:50:28.403Z,102372.41
2023-01-22T11:54:20.468Z,102369.39
2023-01-22T11:58:12.311Z,102376.67
2023-01-22T12:01:59.385Z,102375.54
2023-01-22T12:06:06.133Z,102374.15
2023-01-22T12:09:52.993Z,102373.33
2023-01-22T12:14:26.649Z,102374.77
2023-01-22T12:19:08.701Z,102377.55
2023-01-22T12:23:01.969Z,102375.67
2023-01-22T12:32:11.520Z,102382.36
2023-01-22T12:40:22.723Z,102381.79
2023-01-22T12:44:18.353Z,102388.67
2023-01-22T12:48:26.809Z,102389.64
2023-01-22T12:57:07.091Z,102393.88
2023-01-22T13:00:57.301Z,102396.25
2023-01-22T13:05:24.078Z,102398.55
2023-01-22T13:09:17.479Z,102401.14
2023-01-22T13:13:18.636Z,102405.94
2023-01-22T13:17:17.995Z,102409.27
2023-01-22T13:21:02.481Z,102416.98
2023-01-22T13:25:30.131Z,102415.87
2023-01-22T13:34:15.758Z,102420.80
2023-01-22T13:38:40.162Z,102423.10
2023-01-22T13:43:00.877Z,102422.95
2023-01-22T13:47:16.794Z,102423.80
2023-01-22T13:51:44.969Z,102421.89
2023-01-22T13:55:58.051Z,102433.96
2023-01-22T14:00:33.358Z,102443.33
2023-01-22T14:04:42.150Z,102445.48
2023-01-22T14:08:54.417Z,102452.17
2023-01-22T14:17:25.174Z,102453.73
2023-01-22T14:25:44.951Z,102460.96
2023-01-22T14:29:08.195Z,102461.65
2023-01-22T14:32:52.950Z,102459.35
2023-01-22T14:41:15.340Z,102453.73
2023-01-22T14:48:39.483Z,102467.33
2023-01-22T14:52:45.308Z,102466.38
2023-01-22T15:00:59.886Z,102471.71
2023-01-22T15:04:40.504Z,102476.70
2023-01-22T15:09:04.978Z,102473.16
2023-01-22T15:12:41.758Z,102471.78
2023-01-22T15:16:46.023Z,102473.19
2023-01-22T15:28:25.197Z,102490.19
2023-01-22T15:32:50.260Z,102492.27
2023-01-22T15:36:31.385Z,102498.70
2023-01-22T15:39:55.933Z,102507.73
2023-01-22T15:43:08.797Z,102508.51
2023-01-22T15:47:12.696Z,102508.60
2023-01-22T15:51:18.319Z,102521.99
2023-01-22T16:11:39.416Z,102528.05
2023-01-22T16:16:06.973Z,102527.62
2023-01-22T16:20:14.158Z,102527.38
2023-01-22T16:24:05.050Z,102533.25
2023-01-22T16:27:50.390Z,102530.21
2023-01-22T16:38:25.712Z,102536.74
2023-01-22T16:45:18.522Z,102542.48
2023-01-22T16:49:50.774Z,102550.33
2023-01-22T16:54:06.753Z,102551.92
2023-01-22T17:10:32.453Z,102566.48
2023-01-22T17:14:23.949Z,102569.45
2023-01-22T17:18:23.823Z,102576.17
2023-01-22T17:22:21.564Z,102577.75
2023-01-22T17:26:19.466Z,102580.75
2023-01-22T17:29:53.604Z,102578.80
2023-01-22T17:34:05.619Z,102582.66
2023-01-22T17:37:54.911Z,102587.80
2023-01-22T17:41:55.280Z,102586.79
2023-01-22T17:46:06.757Z,102597.75
2023-01-22T17:50:41.449Z,102600.42
2023-01-22T17:59:34.344Z,102609.34
2023-01-22T18:03:24.965Z,102611.60
2023-01-22T18:07:16.345Z,102615.66
2023-01-22T18:11:55.834Z,102620.46
2023-01-22T18:25:02.906Z,102628.39
2023-01-22T18:29:33.315Z,102633.86
2023-01-22T18:45:34.548Z,102636.92
2023-01-22T18:49:36.887Z,102637.62
2023-01-22T18:53:26.240Z,102637.93
2023-01-22T18:57:17.651Z,102641.86
2023-01-22T19:05:42.870Z,102655.01
2023-01-22T19:10:18.963Z,102653.30
2023-01-22T19:14:22.351Z,102649.23
2023-01-22T19:18:57.997Z,102648.29
2023-01-22T19:23:33.843Z,102634.89
2023-01-22T19:28:10.984Z,102650.88
2023-01-22T19:32:44.655Z,102646.29
2023-01-22T19:37:10.198Z,102659.36
2023-01-22T19:41:48.480Z,102674.77
2023-01-22T19:46:26.301Z,102680.75
2023-01-22T19:50:57.744Z,102687.19
2023-01-22T19:55:32.454Z,102688.41
2023-01-22T20:00:03.366Z,102691.58
2023-01-22T20:04:30.168Z,102695.30
2023-01-22T20:13:11.247Z,102692.32
2023-01-22T20:17:26.150Z,102701.29
2023-01-22T20:21:17.680Z,102702.91
2023-01-22T20:25:12.048Z,102695.64
2023-01-22T20:29:08.693Z,102694.66
2023-01-22T20:33:06.246Z,102694.63
2023-01-22T20:37:00.338Z,102699.07
2023-01-22T20:45:27.357Z,102700.19
2023-01-22T20:50:04.643Z,102704.60
2023-01-22T20:54:54.920Z,102708.20
2023-01-22T20:59:12.182Z,102716.63
2023-01-22T21:03:45.767Z,102722.64
2023-01-22T21:08:19.699Z,102731.55
2023-01-22T21:12:51.804Z,102722.45
2023-01-22T21:21:51.234Z,102732.11
2023-01-22T21:25:47.713Z,102729.88
2023-01-22T21:29:21.885Z,102731.79
2023-01-22T21:33:06.091Z,102736.70
2023-01-22T21:41:11.582Z,102736.73
2023-01-22T21:45:13.499Z,102739.88
2023-01-22T21:53:30.834Z,102738.11
2023-01-22T21:57:21.828Z,102741.33
2023-01-22T22:01:13.436Z,102742.95
2023-01-22T22:05:17.571Z,102742.27
2023-01-22T22:09:11.775Z,102745.85
2023-01-22T22:12:41.762Z,102749.56
2023-01-22T22:16:03.682Z,102749.89
2023-01-22T22:19:56.417Z,102747.24
2023-01-22T22:23:37.708Z,102751.10
2023-01-22T22:27:28.314Z,102753.94
2023-01-22T22:32:05.222Z,102754.80
2023-01-22T22:36:36.091Z,102761.06
2023-01-22T22:45:25.952Z,102768.15
2023-01-22T22:49:11.617Z,102769.19
2023-01-22T22:53:07.497Z,102773.63
2023-01-22T22:56:57.224Z,102781.95
2023-01-22T23:00:46.459Z,102786.74
2023-01-22T23:04:28.232Z,102790.07
2023-01-22T23:08:19.621Z,102790.07
2023-01-22T23:12:10.265Z,102791.97
2023-01-22T23:16:05.257Z,102792.46
2023-01-22T23:20:02.538Z,102804.85
2023-01-22T23:23:31.001Z,102810.89
2023-01-22T23:27:18.910Z,102820.05
2023-01-22T23:31:12.465Z,102817.92
2023-01-22T23:35:02.500Z,102827.70
2023-01-22T23:42:48.957Z,102836.54
2023-01-22T23:46:41.161Z,102846.97
2023-01-22T23:50:38.123Z,102850.33
2023-01-22T23:54:29.651Z,102852.78
